Time;durP1;ratioP1;P1;durP2;ratioP2;P2;SDS_P1;SDS_P2;PMS_P1;PMS_P2;Temp;Humidity;BMP_temperature;BMP_pressure;BME280_temperature;BME280_humidity;BME280_pressure;Samples;Min_cycle;Max_cycle;Signal;HPM_P1;HPM_P2
2021/12/27 00:00:36;;;;;;;2.92;2.33;;;18.60;63.40;;;;;;10474815;28;20060;-77
2021/12/27 00:05:38;;;;;;;2.95;2.47;;;18.60;63.40;;;;;;10475345;28;20041;-77
2021/12/27 00:10:39;;;;;;;2.88;2.40;;;18.50;63.30;;;;;;10451768;28;20098;-77
2021/12/27 00:15:42;;;;;;;3.33;2.47;;;18.50;63.30;;;;;;10453303;28;20049;-77
2021/12/27 00:20:43;;;;;;;2.67;2.30;;;18.50;63.30;;;;;;10451857;28;20053;-77
2021/12/27 00:25:45;;;;;;;2.45;2.15;;;18.50;63.30;;;;;;10475242;28;20091;-77
2021/12/27 00:30:46;;;;;;;2.90;2.50;;;18.50;63.30;;;;;;10451094;28;20060;-76
2021/12/27 00:35:48;;;;;;;3.70;2.75;;;18.50;63.30;;;;;;10452355;28;20331;-77
2021/12/27 00:40:50;;;;;;;3.30;2.40;;;18.50;63.30;;;;;;10484652;28;20048;-77
2021/12/27 00:45:51;;;;;;;2.65;2.33;;;18.50;63.30;;;;;;10467419;28;20045;-76
2021/12/27 00:50:53;;;;;;;2.70;2.33;;;18.50;63.20;;;;;;10481452;28;20418;-77
2021/12/27 00:55:54;;;;;;;3.58;2.90;;;18.50;63.30;;;;;;10451647;28;20094;-76
2021/12/27 01:00:55;;;;;;;3.40;2.60;;;18.50;63.30;;;;;;10488179;28;20489;-76
2021/12/27 01:05:57;;;;;;;3.28;2.60;;;18.50;63.20;;;;;;10456346;28;20045;-76
2021/12/27 01:16:14;;;;;;;3.35;2.38;;;18.40;63.30;;;;;;10434324;28;20056;-76
2021/12/27 01:21:16;;;;;;;3.30;2.75;;;18.50;63.30;;;;;;10475985;28;20044;-77
2021/12/27 01:26:18;;;;;;;3.30;2.60;;;18.50;63.30;;;;;;10471107;28;20048;-77
2021/12/27 01:31:19;;;;;;;2.80;2.53;;;18.50;63.30;;;;;;10456791;28;20056;-77
2021/12/27 01:36:21;;;;;;;3.05;2.50;;;18.50;63.30;;;;;;10421461;28;20103;-77
2021/12/27 01:41:22;;;;;;;3.13;2.40;;;18.50;63.30;;;;;;10443516;28;20049;-77
2021/12/27 01:46:26;;;;;;;3.40;2.67;;;18.50;63.30;;;;;;10487129;28;20048;-77
2021/12/27 01:51:28;;;;;;;3.78;2.50;;;18.50;63.30;;;;;;10467848;28;20045;-77
2021/12/27 01:56:29;;;;;;;3.25;2.72;;;18.50;63.30;;;;;;10445465;28;20494;-78
2021/12/27 02:01:30;;;;;;;3.92;2.97;;;18.50;63.30;;;;;;10431468;28;20053;-77
2021/12/27 02:06:32;;;;;;;3.60;2.95;;;18.50;63.40;;;;;;10468229;28;20048;-78
2021/12/27 02:11:34;;;;;;;3.83;2.72;;;18.50;63.40;;;;;;10441454;28;20056;-77
2021/12/27 02:16:36;;;;;;;4.07;3.08;;;18.50;63.40;;;;;;10437793;28;20044;-77
2021/12/27 02:21:38;;;;;;;3.05;2.55;;;18.50;63.50;;;;;;10450302;28;20501;-77
2021/12/27 02:26:39;;;;;;;2.85;2.38;;;18.50;63.40;;;;;;10433174;28;20053;-76
2021/12/27 02:31:41;;;;;;;3.10;2.80;;;18.50;63.50;;;;;;10463661;28;20569;-76
2021/12/27 02:36:43;;;;;;;3.45;2.70;;;18.50;63.50;;;;;;10440010;28;20137;-76
2021/12/27 02:41:44;;;;;;;3.78;2.90;;;18.50;63.50;;;;;;10453622;28;20421;-78
2021/12/27 02:46:46;;;;;;;3.65;2.78;;;18.50;63.50;;;;;;10456813;28;20452;-77
2021/12/27 02:51:47;;;;;;;3.20;2.67;;;18.50;63.50;;;;;;10435771;28;20092;-77
2021/12/27 02:56:49;;;;;;;3.60;2.95;;;18.50;63.60;;;;;;10446261;28;20041;-78
2021/12/27 03:01:50;;;;;;;3.30;2.75;;;18.50;63.60;;;;;;10459205;28;20485;-77
2021/12/27 03:06:52;;;;;;;3.70;3.00;;;18.50;63.70;;;;;;10446686;28;20053;-77
2021/12/27 03:11:53;;;;;;;3.67;3.17;;;18.50;63.60;;;;;;10443271;28;20048;-77
2021/12/27 03:16:55;;;;;;;3.33;2.70;;;18.50;63.60;;;;;;10460748;28;20053;-77
2021/12/27 03:21:56;;;;;;;3.75;2.65;;;18.50;63.70;;;;;;10414944;28;20053;-77
2021/12/27 03:26:58;;;;;;;4.20;2.85;;;18.50;63.70;;;;;;10447955;28;20048;-77
2021/12/27 03:31:59;;;;;;;4.47;3.22;;;18.50;63.70;;;;;;10446884;28;20049;-77
2021/12/27 03:37:00;;;;;;;3.35;2.83;;;18.50;63.80;;;;;;10450106;28;20057;-77
2021/12/27 03:42:02;;;;;;;3.40;2.85;;;18.50;63.80;;;;;;10449499;28;20457;-77
2021/12/27 03:47:03;;;;;;;3.33;3.00;;;18.50;63.80;;;;;;10451946;28;20410;-76
2021/12/27 03:52:05;;;;;;;3.22;2.80;;;18.50;63.80;;;;;;10452715;28;20049;-76
2021/12/27 03:57:06;;;;;;;3.95;2.92;;;18.50;63.90;;;;;;10437231;28;20521;-76
2021/12/27 04:02:08;;;;;;;4.20;3.22;;;18.50;63.80;;;;;;10473835;28;20413;-76
2021/12/27 04:07:09;;;;;;;3.35;3.03;;;18.50;63.90;;;;;;10452340;28;20520;-76
2021/12/27 04:12:11;;;;;;;4.65;3.38;;;18.50;63.90;;;;;;10452634;28;20041;-76
2021/12/27 04:17:12;;;;;;;4.15;3.13;;;18.60;64.00;;;;;;10431306;28;20045;-76
2021/12/27 04:22:14;;;;;;;3.33;2.92;;;18.50;64.00;;;;;;10417015;28;20045;-76
2021/12/27 04:27:15;;;;;;;5.05;3.13;;;18.50;64.00;;;;;;10410976;28;20064;-76
2021/12/27 04:32:17;;;;;;;3.25;2.80;;;18.60;64.10;;;;;;10449260;28;20052;-76
2021/12/27 04:37:18;;;;;;;3.22;2.80;;;18.60;64.10;;;;;;10460201;28;20045;-75
2021/12/27 04:42:20;;;;;;;3.60;3.00;;;18.60;64.10;;;;;;10441370;28;20054;-76
2021/12/27 04:47:21;;;;;;;3.85;2.70;;;18.60;64.20;;;;;;10453430;28;20060;-76
2021/12/27 04:52:22;;;;;;;4.00;2.70;;;18.60;64.20;;;;;;10489331;28;20087;-76
2021/12/27 04:57:24;;;;;;;3.25;2.88;;;18.60;64.20;;;;;;10449202;28;20052;-74
2021/12/27 05:02:25;;;;;;;3.25;2.72;;;18.60;64.20;;;;;;10465249;28;20045;-77
2021/12/27 05:07:27;;;;;;;3.67;3.08;;;18.60;64.20;;;;;;10458688;28;20071;-74
2021/12/27 05:12:28;;;;;;;4.13;3.00;;;18.60;64.20;;;;;;10470425;28;20078;-76
2021/12/27 05:17:30;;;;;;;3.50;2.90;;;18.60;64.30;;;;;;10449326;28;20057;-76
2021/12/27 05:22:31;;;;;;;3.58;3.00;;;18.60;64.30;;;;;;10443162;28;20049;-76
2021/12/27 05:27:33;;;;;;;3.75;3.20;;;18.60;64.20;;;;;;10454179;28;20384;-76
2021/12/27 05:32:35;;;;;;;3.97;3.30;;;18.60;64.20;;;;;;10456641;28;20044;-76
2021/12/27 05:37:37;;;;;;;3.30;3.00;;;18.60;64.30;;;;;;10457463;28;20045;-76
2021/12/27 05:42:39;;;;;;;3.92;3.13;;;18.60;64.20;;;;;;10472840;28;20076;-76
2021/12/27 05:47:40;;;;;;;3.33;3.03;;;18.70;64.40;;;;;;10481243;28;20056;-75
2021/12/27 05:52:42;;;;;;;4.13;3.30;;;18.60;64.30;;;;;;10456669;28;20056;-76
2021/12/27 05:57:43;;;;;;;3.95;3.13;;;18.60;64.30;;;;;;10460127;28;20045;-76
2021/12/27 06:02:44;;;;;;;3.55;2.97;;;18.60;64.40;;;;;;10453518;28;20125;-76
2021/12/27 06:07:46;;;;;;;3.30;2.97;;;18.60;64.40;;;;;;10456567;28;20067;-76
2021/12/27 06:12:47;;;;;;;3.90;3.00;;;18.60;64.40;;;;;;10451778;28;20056;-76
2021/12/27 06:17:49;;;;;;;3.80;3.08;;;18.60;64.50;;;;;;10456304;28;20060;-76
2021/12/27 06:22:50;;;;;;;3.45;3.15;;;18.60;64.50;;;;;;10454171;28;20449;-77
2021/12/27 06:27:52;;;;;;;3.90;3.08;;;18.60;64.50;;;;;;10436993;28;20049;-76
2021/12/27 06:32:53;;;;;;;3.50;2.88;;;18.60;64.50;;;;;;10453001;28;20410;-77
2021/12/27 06:37:55;;;;;;;3.30;3.00;;;18.60;64.60;;;;;;10425178;28;20406;-76
2021/12/27 06:42:56;;;;;;;4.28;3.58;;;18.60;64.50;;;;;;10455614;28;20056;-76
2021/12/27 06:47:58;;;;;;;3.75;3.25;;;18.60;64.60;;;;;;10440017;28;20061;-74
2021/12/27 06:52:59;;;;;;;3.25;2.80;;;18.60;64.60;;;;;;10454884;28;20045;-75
2021/12/27 06:58:01;;;;;;;4.18;3.28;;;18.60;64.60;;;;;;10449740;28;20320;-76
2021/12/27 07:03:02;;;;;;;4.25;3.10;;;18.60;64.70;;;;;;10454990;28;20049;-76
2021/12/27 07:08:04;;;;;;;3.25;2.80;;;18.60;64.60;;;;;;10453706;28;20064;-76
2021/12/27 07:13:06;;;;;;;3.47;3.15;;;18.60;64.60;;;;;;10441073;28;20289;-76
2021/12/27 07:18:07;;;;;;;3.17;2.85;;;18.60;64.60;;;;;;10453499;28;20052;-76
2021/12/27 07:23:09;;;;;;;3.40;2.83;;;18.60;64.60;;;;;;10453304;28;20056;-75
2021/12/27 07:28:10;;;;;;;4.55;3.40;;;18.60;64.60;;;;;;10446529;28;20055;-76
2021/12/27 07:33:12;;;;;;;3.55;3.00;;;18.60;64.60;;;;;;10459740;28;20036;-76
2021/12/27 07:38:13;;;;;;;3.78;3.10;;;18.60;64.70;;;;;;10454315;28;20041;-76
2021/12/27 07:43:15;;;;;;;4.10;3.00;;;18.60;64.70;;;;;;10453017;28;20064;-76
2021/12/27 07:48:16;;;;;;;3.30;2.80;;;18.70;64.80;;;;;;10440806;28;20060;-76
2021/12/27 07:53:18;;;;;;;3.90;3.10;;;18.70;64.80;;;;;;10411857;28;20224;-76
2021/12/27 07:58:19;;;;;;;4.25;3.08;;;18.70;64.80;;;;;;10432850;28;20509;-76
2021/12/27 08:03:21;;;;;;;4.22;3.30;;;18.70;64.80;;;;;;10471242;28;20053;-76
2021/12/27 08:08:22;;;;;;;4.43;3.28;;;18.70;64.80;;;;;;10446172;28;20045;-76
2021/12/27 08:13:24;;;;;;;4.57;3.33;;;18.70;64.70;;;;;;10435480;28;20100;-76
2021/12/27 08:18:25;;;;;;;4.22;3.10;;;18.70;64.80;;;;;;10468775;28;20053;-76
2021/12/27 08:23:27;;;;;;;4.15;3.50;;;18.70;64.80;;;;;;10486956;28;20041;-76
2021/12/27 08:28:28;;;;;;;3.53;3.10;;;18.70;64.70;;;;;;10449553;28;20057;-76
2021/12/27 08:33:30;;;;;;;4.03;3.20;;;18.70;64.80;;;;;;10452513;28;20045;-77
2021/12/27 08:38:31;;;;;;;4.45;3.47;;;18.70;64.80;;;;;;10441842;28;20063;-75
2021/12/27 08:43:33;;;;;;;3.65;3.08;;;18.70;64.80;;;;;;10452899;28;20051;-77
2021/12/27 08:48:34;;;;;;;3.95;3.28;;;18.70;64.90;;;;;;10461984;28;20061;-77
2021/12/27 08:53:36;;;;;;;4.03;3.40;;;18.70;64.90;;;;;;10488159;28;20048;-76
2021/12/27 08:58:37;;;;;;;3.53;3.17;;;18.70;64.90;;;;;;10485100;28;20048;-76
2021/12/27 09:03:38;;;;;;;3.83;3.13;;;18.70;65.00;;;;;;10456934;28;20485;-77
2021/12/27 09:08:40;;;;;;;4.03;3.28;;;18.70;65.00;;;;;;10452252;28;20383;-77
2021/12/27 09:13:41;;;;;;;4.18;3.00;;;18.70;65.00;;;;;;10450573;28;20045;-77
2021/12/27 09:18:43;;;;;;;3.45;2.97;;;18.70;65.10;;;;;;10450641;28;20048;-76
2021/12/27 09:23:44;;;;;;;3.15;2.85;;;18.70;65.10;;;;;;10450460;28;20060;-77
2021/12/27 09:28:46;;;;;;;4.03;3.30;;;18.80;65.20;;;;;;10454646;28;20060;-77
2021/12/27 09:33:47;;;;;;;4.30;3.28;;;18.80;65.20;;;;;;10457621;28;20067;-75
2021/12/27 09:38:49;;;;;;;3.47;3.10;;;18.80;65.20;;;;;;10457644;28;20044;-77
2021/12/27 09:43:50;;;;;;;3.75;3.30;;;18.70;65.20;;;;;;10458161;28;20509;-77
2021/12/27 09:48:52;;;;;;;4.03;3.33;;;18.80;65.30;;;;;;10456636;28;20418;-77
2021/12/27 09:53:53;;;;;;;3.40;2.90;;;18.80;65.30;;;;;;10456822;28;20052;-76
2021/12/27 09:58:55;;;;;;;4.03;3.28;;;18.80;65.30;;;;;;10456914;28;20045;-76
2021/12/27 10:03:56;;;;;;;3.60;3.20;;;18.80;65.40;;;;;;10457057;28;20041;-78
2021/12/27 10:08:58;;;;;;;4.28;3.40;;;18.80;65.40;;;;;;10456219;28;20057;-77
2021/12/27 10:13:59;;;;;;;4.70;3.38;;;18.80;65.40;;;;;;10455963;28;20052;-75
2021/12/27 10:19:01;;;;;;;4.70;3.50;;;18.80;65.40;;;;;;10460321;28;20045;-77
2021/12/27 10:24:02;;;;;;;3.67;3.00;;;18.80;65.40;;;;;;10458347;28;20044;-76
2021/12/27 10:29:04;;;;;;;3.83;3.13;;;18.80;65.40;;;;;;10488556;28;20056;-77
2021/12/27 10:34:05;;;;;;;3.78;3.20;;;18.90;65.50;;;;;;10458940;28;20045;-77
2021/12/27 10:39:07;;;;;;;3.67;3.15;;;18.80;65.50;;;;;;10454567;28;20076;-77
2021/12/27 10:44:08;;;;;;;3.78;3.03;;;18.90;65.50;;;;;;10455453;28;20056;-78
2021/12/27 10:49:10;;;;;;;4.00;3.20;;;18.90;65.60;;;;;;10454353;28;20052;-77
2021/12/27 10:54:11;;;;;;;5.00;3.78;;;18.90;65.60;;;;;;10454603;28;20041;-78
2021/12/27 10:59:13;;;;;;;4.68;3.33;;;18.90;65.60;;;;;;10456851;28;20044;-77
2021/12/27 11:04:14;;;;;;;4.90;3.38;;;18.90;65.70;;;;;;10496556;28;20055;-78
2021/12/27 11:09:17;;;;;;;4.30;3.47;;;18.90;65.80;;;;;;10495891;28;20052;-77
2021/12/27 11:14:19;;;;;;;3.72;3.08;;;19.00;65.80;;;;;;10454231;28;20045;-77
2021/12/27 11:19:20;;;;;;;4.32;3.20;;;19.00;65.90;;;;;;10451332;28;20052;-76
2021/12/27 11:24:22;;;;;;;5.18;3.35;;;19.00;65.90;;;;;;10450066;28;20041;-78
2021/12/27 11:29:23;;;;;;;5.30;2.90;;;19.00;66.20;;;;;;10443602;28;20057;-75
2021/12/27 11:34:25;;;;;;;4.40;3.10;;;19.20;66.10;;;;;;10433746;28;20051;-80
2021/12/27 11:39:26;;;;;;;4.68;3.30;;;19.40;65.90;;;;;;10415210;28;20056;-78
2021/12/27 11:44:28;;;;;;;4.40;3.22;;;19.80;65.70;;;;;;10430943;28;20053;-78
2021/12/27 11:49:29;;;;;;;4.97;3.42;;;20.20;65.40;;;;;;10421063;28;20057;-79
2021/12/27 11:54:31;;;;;;;4.13;2.90;;;20.60;65.10;;;;;;10434379;28;20509;-79
2021/12/27 11:59:35;;;;;;;5.20;3.65;;;20.90;64.70;;;;;;10442403;28;20520;-79
2021/12/27 12:04:36;;;;;;;5.78;3.40;;;21.00;64.80;;;;;;10469395;28;20052;-77
2021/12/27 12:09:38;;;;;;;5.07;3.55;;;21.10;64.70;;;;;;10451489;28;20056;-77
2021/12/27 12:14:39;;;;;;;6.32;3.47;;;21.20;64.70;;;;;;10448031;28;20071;-78
2021/12/27 12:19:41;;;;;;;5.22;3.72;;;21.20;64.60;;;;;;10447772;28;20052;-76
2021/12/27 12:24:42;;;;;;;5.60;3.60;;;21.20;64.60;;;;;;10457156;28;20049;-77
2021/12/27 12:29:44;;;;;;;5.78;3.78;;;21.20;64.60;;;;;;10446798;28;20045;-76
2021/12/27 12:34:45;;;;;;;6.22;3.90;;;21.20;64.70;;;;;;10446890;28;20048;-77
2021/12/27 12:39:48;;;;;;;5.35;3.72;;;21.20;64.70;;;;;;10451257;28;20041;-78
2021/12/27 12:44:50;;;;;;;6.05;3.97;;;21.20;64.70;;;;;;10446912;28;20041;-77
2021/12/27 12:49:51;;;;;;;5.50;3.78;;;21.20;64.70;;;;;;10445725;28;20068;-77
2021/12/27 12:54:54;;;;;;;5.72;3.80;;;21.20;65.30;;;;;;10447331;28;20098;-74
2021/12/27 12:59:55;;;;;;;5.38;3.75;;;21.10;65.00;;;;;;10446595;28;20041;-77
2021/12/27 13:04:57;;;;;;;5.78;3.83;;;21.00;65.10;;;;;;10454739;28;20114;-79
2021/12/27 13:09:58;;;;;;;5.93;4.30;;;21.00;65.20;;;;;;10471605;28;20429;-78
2021/12/27 13:15:00;;;;;;;5.70;4.00;;;20.90;65.30;;;;;;10454419;28;20413;-76
2021/12/27 13:20:01;;;;;;;5.63;3.83;;;20.90;65.40;;;;;;10454204;28;20041;-77
2021/12/27 13:25:03;;;;;;;6.05;3.78;;;20.90;65.50;;;;;;10459513;28;20049;-77
2021/12/27 13:30:04;;;;;;;6.10;4.00;;;20.90;65.50;;;;;;10476263;28;20045;-77
2021/12/27 13:35:06;;;;;;;6.13;3.92;;;20.90;65.60;;;;;;10453719;28;20053;-77
2021/12/27 13:40:07;;;;;;;5.85;4.07;;;20.90;65.60;;;;;;10453131;28;20527;-78
2021/12/27 13:45:09;;;;;;;7.28;4.32;;;20.80;65.60;;;;;;10473723;28;20057;-77
2021/12/27 13:50:10;;;;;;;6.78;4.30;;;20.80;65.60;;;;;;10452406;28;20427;-79
2021/12/27 13:55:12;;;;;;;7.15;4.68;;;20.80;65.60;;;;;;10452007;28;20551;-79
2021/12/27 14:00:14;;;;;;;6.15;4.22;;;20.80;65.70;;;;;;10452936;28;20056;-78
2021/12/27 14:05:16;;;;;;;5.68;4.07;;;20.80;65.70;;;;;;10469154;28;20182;-78
2021/12/27 14:10:18;;;;;;;6.38;4.05;;;20.80;65.70;;;;;;10453736;28;20065;-78
2021/12/27 14:15:19;;;;;;;6.72;4.07;;;20.80;65.70;;;;;;10452265;28;20088;-78
2021/12/27 14:20:21;;;;;;;5.40;3.60;;;20.80;65.80;;;;;;10451822;28;20045;-79
2021/12/27 14:25:22;;;;;;;5.70;3.90;;;20.80;65.80;;;;;;10451582;28;20045;-77
2021/12/27 14:30:24;;;;;;;6.18;4.18;;;20.80;65.80;;;;;;10456968;28;20053;-77
2021/12/27 14:35:26;;;;;;;6.50;4.38;;;20.80;65.80;;;;;;10456836;28;20048;-79
2021/12/27 14:40:27;;;;;;;6.03;4.00;;;20.80;65.90;;;;;;10450923;28;20070;-79
2021/12/27 14:45:29;;;;;;;4.72;3.30;;;20.80;65.90;;;;;;10458130;28;20444;-76
2021/12/27 14:50:30;;;;;;;5.88;4.10;;;20.80;65.90;;;;;;10451645;28;20049;-78
2021/12/27 14:55:32;;;;;;;6.70;4.22;;;20.80;65.90;;;;;;10475103;28;20045;-78
2021/12/27 15:00:33;;;;;;;6.88;4.30;;;20.80;66.00;;;;;;10450592;28;20045;-77
2021/12/27 15:05:34;;;;;;;5.47;3.88;;;20.80;65.90;;;;;;10451103;28;20049;-79
2021/12/27 15:10:36;;;;;;;5.85;3.83;;;20.80;66.00;;;;;;10449616;28;20051;-79
2021/12/27 15:15:37;;;;;;;4.95;3.63;;;20.80;66.00;;;;;;10449545;28;20052;-79
2021/12/27 15:20:39;;;;;;;5.38;3.92;;;20.80;66.00;;;;;;10462727;28;20049;-78
2021/12/27 15:25:40;;;;;;;5.32;3.75;;;20.80;66.00;;;;;;10448619;28;20376;-78
2021/12/27 15:30:42;;;;;;;6.75;4.38;;;20.90;66.00;;;;;;10466780;28;20318;-78
2021/12/27 15:35:43;;;;;;;5.75;3.60;;;20.90;66.00;;;;;;10428950;28;20041;-79
2021/12/27 15:40:45;;;;;;;5.72;3.80;;;20.90;65.90;;;;;;10449988;28;20041;-80
2021/12/27 15:45:47;;;;;;;4.22;3.28;;;20.90;66.00;;;;;;10448815;28;20045;-79
2021/12/27 15:50:49;;;;;;;4.90;3.55;;;20.90;66.00;;;;;;10467582;28;20052;-79
2021/12/27 15:55:50;;;;;;;4.97;3.85;;;20.90;66.00;;;;;;10452475;28;20056;-79
2021/12/27 16:00:52;;;;;;;5.20;3.75;;;20.90;66.00;;;;;;10447357;28;20414;-80
2021/12/27 16:05:53;;;;;;;5.22;3.78;;;20.90;66.00;;;;;;10446671;28;20053;-78
2021/12/27 16:10:59;;;;;;;4.75;3.60;;;21.00;66.00;;;;;;10447515;28;20417;-78
2021/12/27 16:16:00;;;;;;;4.22;3.28;;;21.00;66.00;;;;;;10445693;28;20452;-78
2021/12/27 16:21:02;;;;;;;4.68;3.50;;;21.00;66.00;;;;;;10447089;28;20053;-78
2021/12/27 16:26:04;;;;;;;4.55;3.55;;;21.00;65.90;;;;;;10454917;28;20044;-78
2021/12/27 16:31:05;;;;;;;5.35;3.60;;;21.00;66.00;;;;;;10446915;28;20041;-79
2021/12/27 16:36:07;;;;;;;4.75;3.50;;;21.10;65.90;;;;;;10448540;28;20041;-78
2021/12/27 16:41:08;;;;;;;5.07;3.65;;;21.10;65.90;;;;;;10460609;28;20040;-79
2021/12/27 16:46:10;;;;;;;5.20;3.80;;;21.10;65.80;;;;;;10464682;28;20498;-78
2021/12/27 16:51:11;;;;;;;5.03;3.40;;;21.10;65.80;;;;;;10452910;28;20057;-78
2021/12/27 16:56:13;;;;;;;4.82;3.50;;;21.10;65.90;;;;;;10451103;28;20211;-77
2021/12/27 17:01:14;;;;;;;4.45;3.40;;;21.10;65.80;;;;;;10447859;28;20049;-73
2021/12/27 17:06:16;;;;;;;3.90;2.85;;;21.10;65.80;;;;;;10446342;28;20037;-78
2021/12/27 17:11:17;;;;;;;4.20;3.20;;;21.10;65.80;;;;;;10454411;28;20065;-79
2021/12/27 17:16:21;;;;;;;3.88;3.08;;;21.10;65.90;;;;;;10445226;28;20549;-78
2021/12/27 17:21:22;;;;;;;3.88;3.25;;;21.10;65.90;;;;;;10454489;28;20562;-78
2021/12/27 17:26:23;;;;;;;3.85;3.35;;;21.00;65.80;;;;;;10490518;28;20516;-76
2021/12/27 17:31:25;;;;;;;3.97;3.33;;;21.10;65.90;;;;;;10421050;28;20513;-71
2021/12/27 17:36:26;;;;;;;3.88;3.08;;;21.10;66.00;;;;;;10437364;28;20040;-71
2021/12/27 17:41:28;;;;;;;5.47;3.25;;;21.10;66.30;;;;;;10436438;28;20421;-74
2021/12/27 17:46:29;;;;;;;3.33;2.80;;;21.10;66.00;;;;;;10436024;28;20399;-73
2021/12/27 17:51:31;;;;;;;3.47;2.88;;;21.10;66.00;;;;;;10436554;28;20080;-72
2021/12/27 17:56:32;;;;;;;3.85;3.20;;;21.10;66.00;;;;;;10435656;28;20053;-74
2021/12/27 18:01:36;;;;;;;4.50;3.22;;;21.10;66.00;;;;;;10434719;28;20045;-73
2021/12/27 18:06:38;;;;;;;3.45;2.90;;;21.10;66.00;;;;;;10437133;28;20134;-74
2021/12/27 18:11:41;;;;;;;3.55;3.15;;;21.10;66.10;;;;;;10437448;28;20056;-74
2021/12/27 18:16:42;;;;;;;3.72;2.90;;;21.10;66.00;;;;;;10436257;28;20406;-74
2021/12/27 18:21:44;;;;;;;4.32;3.00;;;21.10;66.10;;;;;;10437176;28;20489;-75
2021/12/27 18:26:46;;;;;;;3.95;3.10;;;21.10;66.10;;;;;;10437199;28;20127;-74
2021/12/27 18:31:48;;;;;;;3.72;2.80;;;21.10;66.00;;;;;;10435995;28;20052;-75
2021/12/27 18:36:50;;;;;;;3.13;2.80;;;21.10;66.10;;;;;;10436189;28;20055;-75
2021/12/27 18:41:51;;;;;;;3.85;3.00;;;21.10;66.10;;;;;;10435355;28;20056;-74
2021/12/27 18:46:53;;;;;;;3.20;2.90;;;21.10;66.00;;;;;;10433306;28;20045;-75
2021/12/27 18:51:54;;;;;;;5.25;3.08;;;21.10;66.10;;;;;;10420844;28;20052;-75
2021/12/27 18:56:56;;;;;;;4.20;2.80;;;21.10;66.20;;;;;;10424112;28;20045;-76
2021/12/27 19:01:57;;;;;;;5.40;2.83;;;21.10;66.20;;;;;;10433468;28;20048;-76
2021/12/27 19:06:59;;;;;;;3.33;2.50;;;21.10;66.30;;;;;;10413528;28;20132;-78
2021/12/27 19:12:00;;;;;;;3.35;2.70;;;21.10;66.30;;;;;;10437139;28;20045;-75
2021/12/27 19:17:02;;;;;;;3.80;2.85;;;21.10;66.20;;;;;;10440922;28;20057;-75
2021/12/27 19:22:03;;;;;;;3.30;3.00;;;21.00;66.30;;;;;;10445480;28;20049;-76
2021/12/27 19:27:05;;;;;;;4.18;2.70;;;21.00;66.30;;;;;;10435137;28;20501;-74
2021/12/27 19:32:06;;;;;;;3.00;2.70;;;21.00;66.40;;;;;;10419310;28;20041;-77
2021/12/27 19:37:08;;;;;;;5.88;2.83;;;21.00;66.30;;;;;;10410476;28;20100;-77
2021/12/27 19:42:09;;;;;;;3.88;2.75;;;21.00;66.30;;;;;;10409428;28;20479;-78
2021/12/27 19:47:11;;;;;;;4.30;2.90;;;21.00;66.40;;;;;;10434893;28;20528;-78
2021/12/27 19:52:12;;;;;;;3.17;2.88;;;21.00;66.40;;;;;;10435880;28;20080;-77
2021/12/27 19:57:14;;;;;;;3.58;2.97;;;21.00;66.30;;;;;;10411322;28;20068;-78
2021/12/27 20:02:15;;;;;;;3.72;2.42;;;21.00;66.40;;;;;;10445103;28;20056;-78
2021/12/27 20:07:17;;;;;;;3.17;2.75;;;21.00;66.40;;;;;;10447217;28;20053;-79
2021/12/27 20:12:18;;;;;;;3.33;2.60;;;21.00;66.50;;;;;;10411522;28;20060;-78
2021/12/27 20:17:20;;;;;;;2.90;2.60;;;21.00;66.40;;;;;;10442430;28;20533;-77
2021/12/27 20:22:22;;;;;;;4.55;2.97;;;21.00;66.40;;;;;;10419048;28;20056;-79
2021/12/27 20:27:23;;;;;;;8.40;2.80;;;21.00;66.70;;;;;;10428370;28;20041;-80
2021/12/27 20:32:24;;;;;;;7.78;2.80;;;21.00;66.90;;;;;;10448051;28;20052;-79
2021/12/27 20:37:26;;;;;;;9.10;3.17;;;20.90;67.00;;;;;;10447257;28;20064;-78
2021/12/27 20:42:28;;;;;;;5.35;2.85;;;20.80;67.30;;;;;;10408362;28;20577;-80
2021/12/27 20:47:29;;;;;;;5.57;3.00;;;20.90;67.40;;;;;;10440439;28;20253;-80
2021/12/27 20:52:31;;;;;;;6.30;3.25;;;20.90;67.30;;;;;;10422270;28;20048;-80
2021/12/27 20:57:32;;;;;;;6.28;3.20;;;20.90;67.20;;;;;;10399683;28;20056;-79
2021/12/27 21:02:34;;;;;;;4.38;2.78;;;21.00;67.40;;;;;;10419097;28;20045;-78
2021/12/27 21:07:35;;;;;;;3.92;2.88;;;21.00;67.30;;;;;;10429534;28;20045;-80
2021/12/27 21:12:37;;;;;;;4.47;2.60;;;21.00;67.10;;;;;;10436392;28;20045;-80
2021/12/27 21:17:38;;;;;;;4.50;2.85;;;21.10;67.20;;;;;;10419566;28;20532;-79
2021/12/27 21:22:40;;;;;;;2.90;2.50;;;21.10;67.20;;;;;;10427912;28;20041;-78
2021/12/27 21:27:41;;;;;;;3.65;2.60;;;21.10;67.10;;;;;;10456600;28;20045;-81
2021/12/27 21:32:43;;;;;;;3.17;2.83;;;21.10;67.20;;;;;;10452058;28;20061;-77
2021/12/27 21:37:44;;;;;;;2.92;2.53;;;21.10;67.10;;;;;;10452941;28;20068;-78
2021/12/27 21:42:46;;;;;;;2.75;2.38;;;21.10;67.10;;;;;;10459660;28;20045;-78
2021/12/27 21:47:47;;;;;;;2.58;2.20;;;21.10;67.20;;;;;;10457099;28;20064;-80
2021/12/27 21:52:49;;;;;;;3.88;2.75;;;21.10;67.30;;;;;;10455043;28;20520;-78
2021/12/27 21:57:50;;;;;;;3.47;2.33;;;21.10;67.20;;;;;;10446074;28;20052;-81
2021/12/27 22:02:52;;;;;;;3.10;2.50;;;21.10;67.20;;;;;;10443114;28;20076;-78
2021/12/27 22:07:53;;;;;;;2.15;1.95;;;21.10;67.80;;;;;;10448050;28;20048;-81
2021/12/27 22:12:55;;;;;;;3.15;2.22;;;21.10;67.30;;;;;;10444868;28;20417;-78
2021/12/27 22:17:56;;;;;;;2.90;2.45;;;21.10;67.40;;;;;;10433251;28;20051;-79
2021/12/27 22:22:58;;;;;;;2.53;2.28;;;21.10;67.30;;;;;;10451376;28;20052;-77
2021/12/27 22:27:59;;;;;;;2.63;2.42;;;21.10;67.30;;;;;;10434526;28;20038;-80
2021/12/27 22:33:02;;;;;;;3.00;2.38;;;21.10;67.40;;;;;;10442508;28;20409;-81
2021/12/27 22:38:03;;;;;;;2.65;2.35;;;21.10;67.30;;;;;;10418648;28;20391;-78
2021/12/27 22:43:05;;;;;;;2.40;2.00;;;21.10;67.30;;;;;;10442296;28;20041;-82
2021/12/27 22:48:06;;;;;;;3.03;2.17;;;21.10;67.40;;;;;;10449174;28;20053;-77
2021/12/27 22:53:08;;;;;;;2.53;2.20;;;21.10;67.40;;;;;;10448918;28;20061;-81
2021/12/27 22:58:09;;;;;;;2.70;2.30;;;21.10;67.40;;;;;;10440042;28;20049;-80
2021/12/27 23:03:11;;;;;;;2.92;2.30;;;21.10;67.40;;;;;;10433917;28;20044;-82
2021/12/27 23:08:12;;;;;;;2.58;2.35;;;21.10;67.40;;;;;;10434415;28;20041;-77
2021/12/27 23:13:14;;;;;;;2.40;2.20;;;21.10;67.40;;;;;;10446558;28;20045;-77
2021/12/27 23:18:15;;;;;;;2.67;2.10;;;21.10;67.50;;;;;;10442304;28;20048;-79
2021/12/27 23:23:17;;;;;;;3.33;1.98;;;21.10;67.60;;;;;;10412451;28;20045;-80
2021/12/27 23:28:18;;;;;;;3.05;2.40;;;21.10;67.60;;;;;;10439927;28;20052;-77
2021/12/27 23:33:23;;;;;;;2.47;2.22;;;21.10;67.60;;;;;;10423441;28;20486;-77
2021/12/27 23:38:25;;;;;;;2.33;2.13;;;21.10;67.70;;;;;;10446333;28;20060;-77
2021/12/27 23:43:26;;;;;;;3.58;2.20;;;21.10;67.70;;;;;;10441252;28;20045;-78
2021/12/27 23:48:28;;;;;;;2.83;2.00;;;21.10;67.70;;;;;;10439590;28;20041;-79
2021/12/27 23:53:29;;;;;;;2.55;2.03;;;21.10;67.80;;;;;;10434151;28;20057;-77
2021/12/27 23:58:32;;;;;;;2.13;1.83;;;21.10;67.80;;;;;;10459296;28;20041;-77
